Off The Grid — WDJ6506 — position and weather

sailwx.info

Track history (hours):
 
Tides and Currents Weather Stations Pressure Air Temp Water Temp Dewpoint Dewpoint Depression Visibility Wind Speed Wind Dir Waves Ship Positions

Off The Grid

Owner: Procuring Cause, LLC, Fairfax Station, VA. More information available from US FCC via Universal Licensing System and Coast Guard Vessel Documentation Center.

Last reported at 2017-Sep-04 19:23 UTC. Time now 2017-Sep-22 00:56 UTC.
Position N 39°11' W 076°26'.
Warning: this ship's position is 17 days out of date.

Length 65 m.

Type: Pleasure craft. MMSI: 367798440.

Date/timePositionNaut miles runAvg speedWind from/ knotsBaromVisibWave heightAir tempDewpointWater temp
2017-Sep-04 19:23N 39°11' W 076°26'512.3
2017-Sep-04 18:58N 39°13' W 076°32'4 9.5
2017-Sep-04 18:30N 39°17' W 076°35'1 2.0
2017-Sep-04 18:00N 39°17' W 076°37'3 6.1
2017-Sep-04 17:30N 39°15' W 076°34'610.2
2017-Sep-04 16:53N 39°11' W 076°27'  
2017-Aug-27 13:00N 38°58' W 076°28'0 0.0
2017-Aug-27 12:30N 38°58' W 076°28'0 0.0
2017-Aug-27 11:51N 38°58' W 076°28'0 0.0
2017-Aug-27 11:27N 38°58' W 076°28'0 0.0
2017-Aug-27 10:57N 38°58' W 076°28'0 0.0
2017-Aug-27 10:30N 38°58' W 076°28'0 0.0
2017-Aug-27 10:00N 38°58' W 076°28'0 0.0
2017-Aug-27 09:30N 38°58' W 076°28'6 0.5
2017-Aug-26 20:09N 38°52' W 076°26'116 6.2
2017-Aug-26 01:36N 36°57' W 076°02'  
Track history (hours):
 
Tides and Currents Weather Stations Pressure Air Temp Water Temp Dewpoint Dewpoint Depression Visibility Wind Speed Wind Dir Waves Ship Positions

Off The Grid

Owner: Procuring Cause, LLC, Fairfax Station, VA. More information available from US FCC via Universal Licensing System and Coast Guard Vessel Documentation Center.

Last reported at 2017-Sep-04 19:23 UTC. Time now 2017-Sep-22 00:56 UTC.
Position N 39°11' W 076°26'.
Warning: this ship's position is 17 days out of date.

Length 65 m.

Type: Pleasure craft. MMSI: 367798440.

Date/timePositionNaut miles runAvg speedWind from/ knotsBaromVisibWave heightAir tempDewpointWater temp
2017-Sep-04 19:23N 39°11' W 076°26'512.3
2017-Sep-04 18:58N 39°13' W 076°32'4 9.5
2017-Sep-04 18:30N 39°17' W 076°35'1 2.0
2017-Sep-04 18:00N 39°17' W 076°37'3 6.1
2017-Sep-04 17:30N 39°15' W 076°34'610.2
2017-Sep-04 16:53N 39°11' W 076°27'  
2017-Aug-27 13:00N 38°58' W 076°28'0 0.0
2017-Aug-27 12:30N 38°58' W 076°28'0 0.0
2017-Aug-27 11:51N 38°58' W 076°28'0 0.0
2017-Aug-27 11:27N 38°58' W 076°28'0 0.0
2017-Aug-27 10:57N 38°58' W 076°28'0 0.0
2017-Aug-27 10:30N 38°58' W 076°28'0 0.0
2017-Aug-27 10:00N 38°58' W 076°28'0 0.0
2017-Aug-27 09:30N 38°58' W 076°28'6 0.5
2017-Aug-26 20:09N 38°52' W 076°26'116 6.2
2017-Aug-26 01:36N 36°57' W 076°02'  

Dump ship's entire track history